Time;durP1;ratioP1;P1;durP2;ratioP2;P2;SDS_P1;SDS_P2;PMS_P1;PMS_P2;Temp;Humidity;BMP_temperature;BMP_pressure;BME280_temperature;BME280_humidity;BME280_pressure;Samples;Min_cycle;Max_cycle;Signal;HPM_P1;HPM_P2
2022/01/09 00:00:53;;;;;;;;;;;23.80;47.20;;;;;;1528914;76;730;-70
2022/01/09 00:02:55;;;;;;;;;;;23.90;47.50;;;;;;1533923;76;683;-71
2022/01/09 00:04:57;;;;;;;;;;;23.90;47.50;;;;;;1529755;76;1946;-72
2022/01/09 00:06:59;;;;;;;;;;;23.90;47.50;;;;;;1538686;75;702;-72
2022/01/09 00:09:01;;;;;;;;;;;23.80;47.50;;;;;;1532791;76;875;-70
2022/01/09 00:11:03;;;;;;;;;;;23.90;47.50;;;;;;1551825;75;682;-73
2022/01/09 00:13:05;;;;;;;;;;;23.90;47.50;;;;;;1542669;75;1062;-72
2022/01/09 00:15:07;;;;;;;;;;;23.90;47.60;;;;;;1528796;76;1148;-72
2022/01/09 00:17:09;;;;;;;;;;;23.90;47.60;;;;;;1544921;75;804;-73
2022/01/09 00:19:11;;;;;;;;;;;23.90;47.50;;;;;;1528604;76;759;-73
2022/01/09 00:21:13;;;;;;;;;;;23.90;47.50;;;;;;1532401;76;727;-72
2022/01/09 00:23:15;;;;;;;;;;;23.90;47.50;;;;;;1541219;76;666;-72
2022/01/09 00:25:17;;;;;;;;;;;23.80;47.40;;;;;;1550492;75;1978;-72
2022/01/09 00:27:19;;;;;;;;;;;23.90;47.50;;;;;;1531167;75;816;-73
2022/01/09 00:29:21;;;;;;;;;;;23.90;47.50;;;;;;1544175;76;722;-73
2022/01/09 00:31:23;;;;;;;;;;;23.90;47.40;;;;;;1535939;75;722;-73
2022/01/09 00:33:25;;;;;;;;;;;23.90;47.50;;;;;;1538892;76;707;-72
2022/01/09 00:35:27;;;;;;;;;;;23.90;47.50;;;;;;1534317;76;1156;-72
2022/01/09 00:37:29;;;;;;;;;;;23.80;47.40;;;;;;1556084;76;797;-72
2022/01/09 00:39:30;;;;;;;;;;;23.90;47.60;;;;;;1530340;76;676;-72
2022/01/09 00:41:32;;;;;;;;;;;23.90;47.60;;;;;;1541617;75;683;-72
2022/01/09 00:43:34;;;;;;;;;;;23.90;47.60;;;;;;1548708;75;669;-73
2022/01/09 00:45:37;;;;;;;;;;;23.90;47.80;;;;;;1536402;75;1932;-73
2022/01/09 00:47:39;;;;;;;;;;;23.90;47.80;;;;;;1534173;76;687;-71
2022/01/09 00:49:40;;;;;;;;;;;23.90;47.80;;;;;;1522533;77;678;-72
2022/01/09 00:51:42;;;;;;;;;;;23.90;47.80;;;;;;1537084;76;880;-71
2022/01/09 00:53:44;;;;;;;;;;;23.90;47.80;;;;;;1536838;76;737;-71
2022/01/09 00:55:46;;;;;;;;;;;24.00;47.90;;;;;;1525675;76;1144;-70
2022/01/09 00:57:48;;;;;;;;;;;23.90;47.90;;;;;;1557761;75;675;-70
2022/01/09 00:59:50;;;;;;;;;;;23.90;47.90;;;;;;1533348;77;696;-70
2022/01/09 01:01:52;;;;;;;;;;;23.90;47.90;;;;;;1534902;77;718;-71
2022/01/09 01:03:54;;;;;;;;;;;23.90;47.90;;;;;;1529940;76;760;-72
2022/01/09 01:05:55;;;;;;;;;;;23.90;47.90;;;;;;1534365;77;1941;-71
2022/01/09 01:07:57;;;;;;;;;;;23.90;48.00;;;;;;1542310;76;768;-71
2022/01/09 01:09:59;;;;;;;;;;;23.90;47.90;;;;;;1559726;76;729;-71
2022/01/09 01:12:01;;;;;;;;;;;23.90;48.10;;;;;;1533050;77;780;-71
2022/01/09 01:14:03;;;;;;;;;;;24.00;48.00;;;;;;1534678;75;712;-70
2022/01/09 01:16:05;;;;;;;;;;;23.90;48.00;;;;;;1549287;75;1116;-71
2022/01/09 01:18:07;;;;;;;;;;;23.90;48.00;;;;;;1535837;76;642;-71
2022/01/09 01:20:09;;;;;;;;;;;23.90;48.00;;;;;;1532137;76;638;-71
2022/01/09 01:22:11;;;;;;;;;;;23.90;48.10;;;;;;1541658;75;704;-71
2022/01/09 01:24:12;;;;;;;;;;;23.90;48.10;;;;;;1538176;76;654;-71
2022/01/09 01:26:14;;;;;;;;;;;23.90;48.10;;;;;;1537103;76;1924;-71
2022/01/09 01:28:16;;;;;;;;;;;23.90;48.10;;;;;;1530077;76;668;-71
2022/01/09 01:30:18;;;;;;;;;;;23.90;48.10;;;;;;1532431;76;753;-71
2022/01/09 01:32:22;;;;;;;;;;;24.00;48.10;;;;;;1536269;75;633;-71
2022/01/09 01:34:24;;;;;;;;;;;23.90;48.10;;;;;;1547811;75;1164;-70
2022/01/09 01:36:26;;;;;;;;;;;24.00;48.10;;;;;;1532758;76;625;-71
2022/01/09 01:38:27;;;;;;;;;;;23.90;48.10;;;;;;1536765;77;870;-71
2022/01/09 01:40:29;;;;;;;;;;;23.90;48.30;;;;;;1550395;76;743;-71
2022/01/09 01:42:31;;;;;;;;;;;24.00;48.30;;;;;;1536560;76;707;-72
2022/01/09 01:44:41;;;;;;;;;;;24.00;48.30;;;;;;1534126;76;1146;-72
2022/01/09 01:46:43;;;;;;;;;;;23.90;48.30;;;;;;1520999;76;1792;-72
2022/01/09 01:48:45;;;;;;;;;;;23.90;48.30;;;;;;1545825;75;770;-72
2022/01/09 01:50:47;;;;;;;;;;;23.90;48.20;;;;;;1543679;76;779;-72
2022/01/09 01:52:51;;;;;;;;;;;24.00;48.30;;;;;;1536935;76;809;-70
2022/01/09 01:54:53;;;;;;;;;;;23.90;48.40;;;;;;1534187;75;1130;-72
2022/01/09 01:56:55;;;;;;;;;;;24.00;48.40;;;;;;1533123;77;782;-71
2022/01/09 01:58:57;;;;;;;;;;;23.90;48.40;;;;;;1527525;76;748;-70
2022/01/09 02:00:59;;;;;;;;;;;24.00;48.40;;;;;;1541132;76;766;-71
2022/01/09 02:03:01;;;;;;;;;;;24.00;48.40;;;;;;1530413;76;807;-71
2022/01/09 02:05:04;;;;;;;;;;;23.90;48.40;;;;;;1538935;75;1945;-70
2022/01/09 02:07:06;;;;;;;;;;;23.90;48.40;;;;;;1541484;75;1447;-71
2022/01/09 02:09:08;;;;;;;;;;;23.90;48.50;;;;;;1519377;77;774;-72
2022/01/09 02:11:10;;;;;;;;;;;23.90;48.50;;;;;;1539340;75;797;-72
2022/01/09 02:13:12;;;;;;;;;;;23.90;48.50;;;;;;1529259;76;729;-72
2022/01/09 02:15:28;;;;;;;;;;;23.90;48.50;;;;;;1532392;76;1170;-72
2022/01/09 02:17:30;;;;;;;;;;;24.00;48.50;;;;;;1530358;76;1815;-71
2022/01/09 02:19:32;;;;;;;;;;;23.90;48.60;;;;;;1536150;75;739;-71
2022/01/09 02:21:34;;;;;;;;;;;23.90;48.60;;;;;;1547747;75;729;-70
2022/01/09 02:23:37;;;;;;;;;;;23.90;48.70;;;;;;1539384;75;775;-71
2022/01/09 02:25:39;;;;;;;;;;;23.90;48.60;;;;;;1540139;75;1925;-70
2022/01/09 02:27:41;;;;;;;;;;;23.90;48.70;;;;;;1533283;76;816;-71
2022/01/09 02:29:44;;;;;;;;;;;23.90;48.70;;;;;;1538760;76;740;-69
2022/01/09 02:31:46;;;;;;;;;;;23.90;48.70;;;;;;1529536;77;730;-70
2022/01/09 02:33:48;;;;;;;;;;;23.90;48.70;;;;;;1538406;77;745;-71
2022/01/09 02:35:51;;;;;;;;;;;23.90;48.70;;;;;;1551582;76;1111;-70
2022/01/09 02:37:53;;;;;;;;;;;23.90;48.80;;;;;;1526180;75;736;-71
2022/01/09 02:39:55;;;;;;;;;;;23.90;48.70;;;;;;1532935;77;698;-72
2022/01/09 02:41:57;;;;;;;;;;;23.90;48.70;;;;;;1533063;76;815;-72
2022/01/09 02:43:59;;;;;;;;;;;23.90;48.70;;;;;;1543561;76;780;-72
2022/01/09 02:46:15;;;;;;;;;;;23.90;48.60;;;;;;1531009;76;1936;-72
2022/01/09 02:48:11;;;;;;;;;;;23.90;48.60;;;;;;1535092;76;1685;-72
2022/01/09 02:50:39;;;;;;;;;;;23.90;48.70;;;;;;1540545;76;704;-71
2022/01/09 02:56:46;;;;;;;;;;;23.90;48.60;;;;;;1518378;76;1639;-70
2022/01/09 02:58:48;;;;;;;;;;;23.90;48.70;;;;;;1541303;76;780;-71
2022/01/09 03:00:50;;;;;;;;;;;23.90;48.60;;;;;;1531329;76;826;-71
2022/01/09 03:02:51;;;;;;;;;;;23.80;48.60;;;;;;1536234;76;783;-71
2022/01/09 03:04:53;;;;;;;;;;;23.80;48.60;;;;;;1532199;76;1132;-72
2022/01/09 03:06:55;;;;;;;;;;;23.80;48.60;;;;;;1526608;76;1932;-71
2022/01/09 03:09:00;;;;;;;;;;;23.90;48.70;;;;;;1540378;75;1082;-71
2022/01/09 03:11:01;;;;;;;;;;;23.90;48.70;;;;;;1536538;75;1676;-71
2022/01/09 03:13:05;;;;;;;;;;;23.90;48.80;;;;;;1543723;76;716;-71
2022/01/09 03:15:06;;;;;;;;;;;23.80;48.60;;;;;;1543360;75;1177;-70
2022/01/09 03:17:08;;;;;;;;;;;23.80;48.60;;;;;;1546009;76;798;-71
2022/01/09 03:19:10;;;;;;;;;;;23.80;48.70;;;;;;1538204;76;802;-71
2022/01/09 03:21:12;;;;;;;;;;;23.90;48.80;;;;;;1533446;76;697;-71
2022/01/09 03:23:14;;;;;;;;;;;23.90;48.90;;;;;;1534746;76;709;-71
2022/01/09 03:25:16;;;;;;;;;;;23.80;48.90;;;;;;1530515;76;1957;-72
2022/01/09 03:27:17;;;;;;;;;;;23.90;48.90;;;;;;1541873;75;786;-71
2022/01/09 03:29:19;;;;;;;;;;;23.80;48.80;;;;;;1533712;75;721;-72
2022/01/09 03:31:21;;;;;;;;;;;23.90;49.00;;;;;;1533793;76;601;-73
2022/01/09 03:33:23;;;;;;;;;;;23.90;48.90;;;;;;1535541;75;741;-72
2022/01/09 03:35:25;;;;;;;;;;;23.90;49.00;;;;;;1538913;76;1140;-72
2022/01/09 03:37:27;;;;;;;;;;;23.90;49.00;;;;;;1534655;77;654;-73
2022/01/09 03:39:29;;;;;;;;;;;23.90;49.00;;;;;;1541769;76;741;-72
2022/01/09 03:41:31;;;;;;;;;;;23.90;48.90;;;;;;1535358;76;767;-72
2022/01/09 03:43:33;;;;;;;;;;;23.90;49.00;;;;;;1539735;75;711;-73
2022/01/09 03:45:35;;;;;;;;;;;23.90;49.00;;;;;;1533869;76;1956;-72
2022/01/09 03:47:37;;;;;;;;;;;23.90;48.90;;;;;;1532019;77;664;-72
2022/01/09 03:49:38;;;;;;;;;;;23.90;48.90;;;;;;1555046;75;828;-72
2022/01/09 03:51:43;;;;;;;;;;;23.90;48.90;;;;;;1527657;76;749;-71
2022/01/09 03:53:44;;;;;;;;;;;23.90;48.90;;;;;;1533242;76;1155;-72
2022/01/09 03:55:46;;;;;;;;;;;23.90;48.90;;;;;;1525529;76;1131;-72
2022/01/09 03:57:48;;;;;;;;;;;23.90;48.90;;;;;;1544450;76;724;-72
2022/01/09 03:59:50;;;;;;;;;;;23.90;48.80;;;;;;1539646;75;680;-72
2022/01/09 04:01:52;;;;;;;;;;;24.00;48.80;;;;;;1534389;76;772;-72
2022/01/09 04:03:54;;;;;;;;;;;24.00;48.70;;;;;;1541925;76;805;-72
2022/01/09 04:06:00;;;;;;;;;;;24.00;48.70;;;;;;1540855;75;1934;-72
2022/01/09 04:07:59;;;;;;;;;;;23.90;48.70;;;;;;1537818;76;1423;-71
2022/01/09 04:10:01;;;;;;;;;;;24.00;48.70;;;;;;1558692;76;742;-72
2022/01/09 04:12:03;;;;;;;;;;;24.00;48.70;;;;;;1548465;76;1082;-71
2022/01/09 04:14:06;;;;;;;;;;;24.00;48.60;;;;;;1531284;76;721;-72
2022/01/09 04:16:08;;;;;;;;;;;24.00;48.60;;;;;;1532805;75;1054;-72
2022/01/09 04:18:10;;;;;;;;;;;24.00;48.50;;;;;;1529502;75;902;-70
2022/01/09 04:20:12;;;;;;;;;;;24.00;48.60;;;;;;1544552;76;790;-72
2022/01/09 04:22:14;;;;;;;;;;;24.00;48.50;;;;;;1533527;77;703;-72
2022/01/09 04:24:15;;;;;;;;;;;24.10;48.70;;;;;;1536685;77;744;-71
2022/01/09 04:26:18;;;;;;;;;;;24.00;48.60;;;;;;1532746;76;1949;-72
2022/01/09 04:28:20;;;;;;;;;;;24.10;48.70;;;;;;1526677;77;670;-71
2022/01/09 04:30:22;;;;;;;;;;;24.10;48.60;;;;;;1534024;76;768;-71
2022/01/09 04:32:24;;;;;;;;;;;24.10;48.60;;;;;;1539212;75;697;-71
2022/01/09 04:34:26;;;;;;;;;;;24.10;48.60;;;;;;1538093;75;1164;-71
2022/01/09 04:36:28;;;;;;;;;;;24.20;48.60;;;;;;1530992;76;714;-71
2022/01/09 04:38:30;;;;;;;;;;;24.00;48.50;;;;;;1532545;75;696;-72
2022/01/09 04:40:32;;;;;;;;;;;24.10;48.70;;;;;;1551006;76;775;-72
2022/01/09 04:42:41;;;;;;;;;;;24.10;48.70;;;;;;1528166;77;737;-72
2022/01/09 04:44:37;;;;;;;;;;;24.10;48.80;;;;;;1545568;75;1690;-71
2022/01/09 04:46:46;;;;;;;;;;;24.00;48.60;;;;;;1524106;76;1943;-70
2022/01/09 04:48:45;;;;;;;;;;;24.20;48.70;;;;;;1520102;76;1717;-71
2022/01/09 04:50:47;;;;;;;;;;;24.10;48.70;;;;;;1538330;75;1490;-70
2022/01/09 04:52:52;;;;;;;;;;;24.20;48.60;;;;;;1525668;76;739;-71
2022/01/09 04:54:52;;;;;;;;;;;24.20;48.60;;;;;;1535977;77;1631;-71
2022/01/09 04:56:54;;;;;;;;;;;24.20;48.50;;;;;;1544752;75;761;-71
2022/01/09 04:58:56;;;;;;;;;;;24.20;48.40;;;;;;1534474;76;689;-71
2022/01/09 05:00:59;;;;;;;;;;;24.10;48.40;;;;;;1540641;76;702;-71
2022/01/09 05:03:01;;;;;;;;;;;24.20;48.40;;;;;;1544747;76;786;-71
2022/01/09 05:05:04;;;;;;;;;;;24.20;48.40;;;;;;1537847;76;1141;-71
2022/01/09 05:07:06;;;;;;;;;;;24.10;48.40;;;;;;1526662;76;1943;-71
2022/01/09 05:09:07;;;;;;;;;;;24.10;48.50;;;;;;1534645;75;762;-71
2022/01/09 05:11:09;;;;;;;;;;;24.10;48.40;;;;;;1537808;75;836;-71
2022/01/09 05:13:11;;;;;;;;;;;24.10;48.40;;;;;;1552544;76;768;-72
2022/01/09 05:15:15;;;;;;;;;;;24.10;48.40;;;;;;1533157;75;1143;-72
2022/01/09 05:17:17;;;;;;;;;;;24.20;48.40;;;;;;1522343;77;796;-72
2022/01/09 05:19:21;;;;;;;;;;;24.10;48.40;;;;;;1532914;77;699;-72
2022/01/09 05:21:22;;;;;;;;;;;24.10;48.40;;;;;;1530356;76;1196;-74
2022/01/09 05:23:24;;;;;;;;;;;24.10;48.40;;;;;;1538042;75;751;-72
2022/01/09 05:25:26;;;;;;;;;;;24.10;48.50;;;;;;1534292;75;1150;-73
2022/01/09 05:27:28;;;;;;;;;;;24.10;48.40;;;;;;1542405;75;1936;-73
2022/01/09 05:29:30;;;;;;;;;;;24.10;48.40;;;;;;1545237;76;766;-72
2022/01/09 05:31:32;;;;;;;;;;;24.20;48.40;;;;;;1534494;76;717;-73
2022/01/09 05:33:33;;;;;;;;;;;24.10;48.40;;;;;;1534075;76;733;-72
2022/01/09 05:35:35;;;;;;;;;;;24.10;48.40;;;;;;1528535;76;1193;-72
2022/01/09 05:37:37;;;;;;;;;;;24.10;48.40;;;;;;1541468;76;816;-72
2022/01/09 05:39:39;;;;;;;;;;;24.10;48.40;;;;;;1539856;75;813;-72
2022/01/09 05:41:42;;;;;;;;;;;24.20;48.30;;;;;;1538190;75;832;-71
2022/01/09 05:43:44;;;;;;;;;;;24.20;48.30;;;;;;1534144;76;723;-72
2022/01/09 05:45:46;;;;;;;;;;;24.10;48.30;;;;;;1560553;75;1109;-71
2022/01/09 05:47:48;;;;;;;;;;;24.10;48.40;;;;;;1558207;76;1934;-71
2022/01/09 05:49:50;;;;;;;;;;;24.10;48.40;;;;;;1539885;76;832;-72
2022/01/09 05:51:52;;;;;;;;;;;24.00;48.30;;;;;;1537820;76;720;-71
2022/01/09 05:53:54;;;;;;;;;;;24.10;48.50;;;;;;1532443;76;736;-71
2022/01/09 05:55:56;;;;;;;;;;;24.00;48.40;;;;;;1531217;75;1112;-72
2022/01/09 05:57:58;;;;;;;;;;;24.00;48.40;;;;;;1537187;75;830;-70
2022/01/09 06:00:00;;;;;;;;;;;24.00;48.40;;;;;;1527653;77;822;-70
2022/01/09 06:02:02;;;;;;;;;;;24.10;48.70;;;;;;1531834;77;714;-71
2022/01/09 06:04:05;;;;;;;;;;;24.10;48.70;;;;;;1531146;76;686;-71
2022/01/09 06:06:07;;;;;;;;;;;24.00;48.60;;;;;;1538785;77;1110;-71
2022/01/09 06:08:09;;;;;;;;;;;24.10;48.70;;;;;;1533235;76;1967;-70
2022/01/09 06:10:11;;;;;;;;;;;24.10;48.70;;;;;;1533589;76;795;-70
2022/01/09 06:12:13;;;;;;;;;;;24.00;48.60;;;;;;1535604;76;796;-71
2022/01/09 06:14:14;;;;;;;;;;;24.00;48.50;;;;;;1541665;75;731;-70
2022/01/09 06:16:16;;;;;;;;;;;24.10;48.70;;;;;;1536006;77;1119;-71
2022/01/09 06:18:19;;;;;;;;;;;24.00;48.60;;;;;;1549202;76;718;-71
2022/01/09 06:20:21;;;;;;;;;;;24.00;48.50;;;;;;1538514;76;687;-71
2022/01/09 06:22:23;;;;;;;;;;;24.10;48.60;;;;;;1534461;76;720;-71
2022/01/09 06:24:24;;;;;;;;;;;24.00;48.60;;;;;;1530079;77;1202;-71
2022/01/09 06:26:26;;;;;;;;;;;24.10;48.70;;;;;;1535993;76;1941;-71
2022/01/09 06:28:28;;;;;;;;;;;24.10;48.70;;;;;;1533664;76;728;-71
2022/01/09 06:30:30;;;;;;;;;;;24.10;48.70;;;;;;1542622;75;807;-71
2022/01/09 06:32:32;;;;;;;;;;;24.10;48.70;;;;;;1537272;75;686;-71
2022/01/09 06:34:34;;;;;;;;;;;24.10;48.70;;;;;;1528800;77;1128;-70
2022/01/09 06:36:36;;;;;;;;;;;24.10;48.70;;;;;;1537084;77;685;-71
2022/01/09 06:38:38;;;;;;;;;;;24.00;48.60;;;;;;1521389;76;789;-71
2022/01/09 06:40:39;;;;;;;;;;;24.10;48.60;;;;;;1537800;76;789;-70
2022/01/09 06:42:41;;;;;;;;;;;24.10;48.70;;;;;;1533286;76;684;-71
2022/01/09 06:44:43;;;;;;;;;;;24.00;48.60;;;;;;1550105;75;1186;-71
2022/01/09 06:46:45;;;;;;;;;;;24.00;48.60;;;;;;1529776;75;1931;-71
2022/01/09 06:48:47;;;;;;;;;;;24.10;48.90;;;;;;1543242;75;798;-72
2022/01/09 06:50:49;;;;;;;;;;;24.00;48.70;;;;;;1536989;76;749;-71
2022/01/09 06:52:51;;;;;;;;;;;24.00;48.60;;;;;;1531412;75;802;-71
2022/01/09 06:54:53;;;;;;;;;;;24.00;48.60;;;;;;1552925;75;1127;-71
2022/01/09 06:56:54;;;;;;;;;;;24.10;48.70;;;;;;1545201;76;714;-69
2022/01/09 06:58:56;;;;;;;;;;;24.00;48.60;;;;;;1551302;76;731;-72
2022/01/09 07:00:58;;;;;;;;;;;24.10;48.80;;;;;;1540550;76;829;-72
2022/01/09 07:03:00;;;;;;;;;;;24.10;48.80;;;;;;1531251;76;803;-72
2022/01/09 07:05:02;;;;;;;;;;;24.10;48.90;;;;;;1542052;75;1181;-71
2022/01/09 07:07:05;;;;;;;;;;;24.10;48.90;;;;;;1547867;75;1932;-72
2022/01/09 07:09:06;;;;;;;;;;;24.10;48.80;;;;;;1530253;75;705;-72
2022/01/09 07:11:08;;;;;;;;;;;24.10;48.90;;;;;;1535033;75;797;-71
2022/01/09 07:13:10;;;;;;;;;;;24.10;48.90;;;;;;1530513;77;766;-71
2022/01/09 07:15:12;;;;;;;;;;;24.10;48.90;;;;;;1529985;76;1198;-70
2022/01/09 07:17:14;;;;;;;;;;;24.10;48.90;;;;;;1523663;77;700;-71
2022/01/09 07:19:16;;;;;;;;;;;24.10;48.80;;;;;;1529737;76;772;-71
2022/01/09 07:21:18;;;;;;;;;;;24.10;48.80;;;;;;1530453;76;764;-70
2022/01/09 07:23:20;;;;;;;;;;;24.10;48.80;;;;;;1542351;75;760;-71
2022/01/09 07:25:21;;;;;;;;;;;24.10;48.80;;;;;;1538785;75;1175;-71
2022/01/09 07:27:23;;;;;;;;;;;24.10;48.80;;;;;;1524924;76;1932;-71
2022/01/09 07:29:25;;;;;;;;;;;24.00;48.70;;;;;;1525420;77;940;-70
2022/01/09 07:31:27;;;;;;;;;;;24.00;48.70;;;;;;1532688;77;795;-72
2022/01/09 07:33:30;;;;;;;;;;;24.20;48.90;;;;;;1526052;76;711;-72
2022/01/09 07:35:32;;;;;;;;;;;24.20;48.90;;;;;;1525121;76;1150;-72
2022/01/09 07:37:34;;;;;;;;;;;24.10;48.80;;;;;;1541382;75;713;-71
2022/01/09 07:39:36;;;;;;;;;;;24.10;48.90;;;;;;1530395;75;793;-71
2022/01/09 07:41:38;;;;;;;;;;;24.10;48.90;;;;;;1525894;77;783;-71
2022/01/09 07:43:40;;;;;;;;;;;24.20;48.90;;;;;;1517594;77;745;-73
2022/01/09 07:45:42;;;;;;;;;;;24.10;48.90;;;;;;1523361;76;1233;-69
2022/01/09 07:47:44;;;;;;;;;;;24.00;49.10;;;;;;1535770;76;1930;-70
2022/01/09 07:49:45;;;;;;;;;;;24.10;49.10;;;;;;1528511;76;736;-71
2022/01/09 07:51:47;;;;;;;;;;;24.10;48.90;;;;;;1528653;76;754;-70
2022/01/09 07:53:49;;;;;;;;;;;24.10;48.90;;;;;;1537161;75;782;-69
2022/01/09 07:55:52;;;;;;;;;;;24.10;48.80;;;;;;1532367;75;1161;-69
2022/01/09 07:57:54;;;;;;;;;;;24.10;48.70;;;;;;1529284;76;703;-72
2022/01/09 08:00:00;;;;;;;;;;;24.10;48.60;;;;;;1526860;76;686;-70
2022/01/09 08:02:02;;;;;;;;;;;24.10;48.60;;;;;;1527084;77;731;-70
2022/01/09 08:04:04;;;;;;;;;;;24.00;48.40;;;;;;1535334;77;774;-68
2022/01/09 08:06:06;;;;;;;;;;;24.10;48.70;;;;;;1532640;77;1182;-65
2022/01/09 08:08:08;;;;;;;;;;;24.20;48.50;;;;;;1538620;75;1945;-69
2022/01/09 08:10:09;;;;;;;;;;;24.10;48.50;;;;;;1530235;75;784;-69
2022/01/09 08:12:14;;;;;;;;;;;24.10;48.40;;;;;;1531943;75;760;-69
2022/01/09 08:14:15;;;;;;;;;;;24.00;48.40;;;;;;1525127;76;1774;-69
2022/01/09 08:16:17;;;;;;;;;;;24.10;48.40;;;;;;1529104;75;1139;-69
2022/01/09 08:18:19;;;;;;;;;;;24.10;48.40;;;;;;1523994;76;826;-70
2022/01/09 08:20:21;;;;;;;;;;;24.00;48.30;;;;;;1525868;77;720;-69
2022/01/09 08:22:28;;;;;;;;;;;24.00;48.30;;;;;;1518938;76;839;-68
2022/01/09 08:24:26;;;;;;;;;;;24.00;48.30;;;;;;1534295;76;1435;-69
2022/01/09 08:26:28;;;;;;;;;;;24.00;48.20;;;;;;1548362;75;865;-68
2022/01/09 08:28:30;;;;;;;;;;;24.00;48.30;;;;;;1537645;76;1907;-67
2022/01/09 08:30:32;;;;;;;;;;;24.10;48.40;;;;;;1557149;75;694;-68
2022/01/09 08:32:34;;;;;;;;;;;24.00;48.10;;;;;;1545516;75;714;-68
2022/01/09 08:34:37;;;;;;;;;;;24.00;48.10;;;;;;1551639;75;1143;-66
2022/01/09 08:36:38;;;;;;;;;;;24.00;48.30;;;;;;1553191;75;805;-68
2022/01/09 08:38:40;;;;;;;;;;;24.00;48.20;;;;;;1530937;75;812;-68
2022/01/09 08:40:42;;;;;;;;;;;23.90;48.20;;;;;;1551898;75;780;-67
2022/01/09 08:42:44;;;;;;;;;;;24.00;48.30;;;;;;1542917;75;785;-68
2022/01/09 08:44:46;;;;;;;;;;;23.90;48.30;;;;;;1566991;75;1166;-68
2022/01/09 08:46:48;;;;;;;;;;;23.90;48.30;;;;;;1549285;75;814;-67
2022/01/09 08:48:50;;;;;;;;;;;23.90;48.30;;;;;;1559184;75;1937;-66
2022/01/09 08:50:51;;;;;;;;;;;23.90;48.40;;;;;;1550182;75;770;-67
2022/01/09 08:52:53;;;;;;;;;;;23.90;48.30;;;;;;1540508;75;900;-68
2022/01/09 08:54:55;;;;;;;;;;;23.90;48.40;;;;;;1539959;75;1205;-66
2022/01/09 08:56:57;;;;;;;;;;;23.90;48.20;;;;;;1548530;75;732;-69
2022/01/09 08:59:01;;;;;;;;;;;23.90;48.30;;;;;;1539913;75;754;-66
2022/01/09 09:01:03;;;;;;;;;;;23.90;48.10;;;;;;1555431;75;846;-66
2022/01/09 09:03:05;;;;;;;;;;;23.80;46.90;;;;;;1526728;77;797;-69
2022/01/09 09:05:07;;;;;;;;;;;23.80;46.60;;;;;;1525387;77;1248;-69
2022/01/09 09:07:09;;;;;;;;;;;23.70;45.70;;;;;;1532151;77;727;-69
2022/01/09 09:09:11;;;;;;;;;;;23.70;43.50;;;;;;1562338;75;1891;-68
2022/01/09 09:11:13;;;;;;;;;;;23.60;42.30;;;;;;1547294;76;828;-69
2022/01/09 09:13:15;;;;;;;;;;;23.50;42.10;;;;;;1532920;76;652;-69
2022/01/09 09:15:20;;;;;;;;;;;23.50;41.00;;;;;;1552056;75;1157;-69
2022/01/09 09:17:20;;;;;;;;;;;23.30;40.20;;;;;;1544379;75;1693;-69
2022/01/09 09:19:22;;;;;;;;;;;23.30;40.00;;;;;;1522673;76;897;-69
2022/01/09 09:21:24;;;;;;;;;;;23.30;39.90;;;;;;1525826;75;759;-69
2022/01/09 09:23:26;;;;;;;;;;;23.20;39.70;;;;;;1519820;76;684;-68
2022/01/09 09:25:28;;;;;;;;;;;23.20;39.40;;;;;;1526192;76;1155;-69
2022/01/09 09:27:30;;;;;;;;;;;23.10;38.80;;;;;;1553483;76;1918;-68
2022/01/09 09:29:32;;;;;;;;;;;23.10;39.30;;;;;;1528948;76;814;-69
2022/01/09 09:31:33;;;;;;;;;;;23.10;39.70;;;;;;1546827;76;841;-70
2022/01/09 09:33:35;;;;;;;;;;;23.00;39.10;;;;;;1530794;75;652;-69
2022/01/09 09:35:37;;;;;;;;;;;23.00;38.50;;;;;;1541262;75;1081;-69
2022/01/09 09:37:39;;;;;;;;;;;22.90;38.60;;;;;;1532813;76;803;-69
2022/01/09 09:39:41;;;;;;;;;;;22.90;38.90;;;;;;1549600;75;881;-69
2022/01/09 09:41:43;;;;;;;;;;;22.90;38.70;;;;;;1539125;76;731;-69
2022/01/09 09:43:45;;;;;;;;;;;22.90;38.10;;;;;;1517017;77;790;-69
2022/01/09 09:45:47;;;;;;;;;;;22.90;37.60;;;;;;1539809;76;1134;-69
2022/01/09 09:47:48;;;;;;;;;;;22.80;37.30;;;;;;1535682;76;1947;-70
2022/01/09 09:49:50;;;;;;;;;;;22.70;37.40;;;;;;1539266;75;814;-69
2022/01/09 09:51:52;;;;;;;;;;;22.70;37.60;;;;;;1537588;76;770;-69
2022/01/09 09:53:54;;;;;;;;;;;22.70;37.10;;;;;;1540874;76;789;-70
2022/01/09 09:55:56;;;;;;;;;;;22.60;36.50;;;;;;1554612;75;1163;-70
2022/01/09 09:57:58;;;;;;;;;;;22.60;36.70;;;;;;1525773;77;745;-67
2022/01/09 10:00:01;;;;;;;;;;;22.60;36.50;;;;;;1530554;77;730;-68
2022/01/09 10:02:04;;;;;;;;;;;22.50;35.90;;;;;;1534630;77;847;-68
2022/01/09 10:04:07;;;;;;;;;;;22.50;36.00;;;;;;1535499;76;1854;-68
2022/01/09 10:06:09;;;;;;;;;;;22.40;35.90;;;;;;1531936;76;1110;-68
2022/01/09 10:08:15;;;;;;;;;;;22.40;36.30;;;;;;1514688;77;1960;-68
2022/01/09 10:10:17;;;;;;;;;;;22.40;36.30;;;;;;1520447;75;1673;-69
2022/01/09 10:12:20;;;;;;;;;;;22.40;35.70;;;;;;1535455;77;802;-68
2022/01/09 10:14:23;;;;;;;;;;;22.40;36.10;;;;;;1524100;76;1876;-69
2022/01/09 10:16:25;;;;;;;;;;;22.20;35.50;;;;;;1523306;76;730;-70
2022/01/09 10:18:40;;;;;;;;;;;22.30;36.10;;;;;;1531838;77;707;-71
2022/01/09 10:20:42;;;;;;;;;;;22.30;36.10;;;;;;1526924;76;806;-71
2022/01/09 10:22:44;;;;;;;;;;;22.20;36.10;;;;;;1531196;75;768;-71
2022/01/09 10:24:46;;;;;;;;;;;22.30;36.60;;;;;;1541244;76;1119;-72
2022/01/09 10:26:49;;;;;;;;;;;22.30;36.80;;;;;;1552856;76;758;-70
2022/01/09 10:28:51;;;;;;;;;;;22.30;36.90;;;;;;1536200;76;1931;-71
2022/01/09 10:30:53;;;;;;;;;;;22.30;37.10;;;;;;1529956;76;815;-72
2022/01/09 10:32:56;;;;;;;;;;;22.30;37.50;;;;;;1535006;77;727;-69
2022/01/09 10:35:05;;;;;;;;;;;22.30;37.40;;;;;;1529922;77;1779;-70
2022/01/09 10:37:07;;;;;;;;;;;22.30;37.30;;;;;;1523732;77;1023;-69
2022/01/09 10:39:13;;;;;;;;;;;22.30;37.60;;;;;;1528402;77;805;-69
2022/01/09 10:41:15;;;;;;;;;;;22.30;37.70;;;;;;1558438;75;791;-70
2022/01/09 10:43:20;;;;;;;;;;;22.40;37.70;;;;;;1549853;75;827;-69
2022/01/09 10:45:23;;;;;;;;;;;22.40;37.90;;;;;;1527060;76;1139;-69
2022/01/09 10:47:26;;;;;;;;;;;22.40;38.00;;;;;;1522999;76;811;-71
2022/01/09 10:49:42;;;;;;;;;;;22.30;37.80;;;;;;1540376;76;1939;-69
2022/01/09 10:51:43;;;;;;;;;;;22.30;37.90;;;;;;1529124;76;745;-71
2022/01/09 10:53:45;;;;;;;;;;;22.40;38.00;;;;;;1532600;76;778;-73
2022/01/09 10:55:48;;;;;;;;;;;22.40;37.90;;;;;;1530050;76;1071;-71
2022/01/09 10:57:50;;;;;;;;;;;22.40;37.90;;;;;;1549805;75;673;-71
2022/01/09 10:59:52;;;;;;;;;;;22.30;38.10;;;;;;1507361;77;820;-71
2022/01/09 11:01:54;;;;;;;;;;;22.40;38.20;;;;;;1536066;76;700;-70
2022/01/09 11:04:08;;;;;;;;;;;22.40;38.00;;;;;;1509011;78;1219;-69
2022/01/09 11:06:07;;;;;;;;;;;22.50;38.40;;;;;;1531429;77;1637;-71
2022/01/09 11:08:09;;;;;;;;;;;22.50;38.10;;;;;;1551002;75;1932;-70
2022/01/09 11:10:12;;;;;;;;;;;22.40;38.10;;;;;;1522644;76;738;-70
2022/01/09 11:12:19;;;;;;;;;;;22.40;37.90;;;;;;1524674;77;813;-69
2022/01/09 11:14:22;;;;;;;;;;;22.40;38.00;;;;;;1542156;75;1153;-70
2022/01/09 11:16:34;;;;;;;;;;;22.40;38.00;;;;;;1543472;75;748;-71
2022/01/09 11:18:35;;;;;;;;;;;22.40;38.10;;;;;;1532228;77;622;-70
2022/01/09 11:20:37;;;;;;;;;;;22.40;38.10;;;;;;1547775;75;730;-70
2022/01/09 11:22:40;;;;;;;;;;;22.30;38.10;;;;;;1543404;76;748;-70
2022/01/09 11:24:59;;;;;;;;;;;22.20;37.90;;;;;;1527119;77;1185;-69
2022/01/09 11:27:06;;;;;;;;;;;22.40;38.10;;;;;;1539730;76;700;-68
2022/01/09 11:29:07;;;;;;;;;;;22.40;38.10;;;;;;1540682;75;1927;-69
2022/01/09 11:31:27;;;;;;;;;;;22.30;38.30;;;;;;1551599;75;700;-67
2022/01/09 11:33:40;;;;;;;;;;;22.30;38.20;;;;;;1536073;77;733;-69
2022/01/09 11:35:46;;;;;;;;;;;22.40;38.30;;;;;;1536740;76;1193;-70
2022/01/09 11:38:02;;;;;;;;;;;22.30;38.30;;;;;;1535274;76;1646;-70
2022/01/09 11:40:04;;;;;;;;;;;22.30;38.30;;;;;;1547752;76;2097;-71
2022/01/09 11:42:11;;;;;;;;;;;22.40;38.40;;;;;;1551330;76;727;-71
2022/01/09 11:44:14;;;;;;;;;;;22.30;38.10;;;;;;1533344;76;720;-71
2022/01/09 11:46:16;;;;;;;;;;;22.30;37.90;;;;;;1544050;75;1146;-71
2022/01/09 11:48:21;;;;;;;;;;;22.20;37.50;;;;;;1533376;75;1929;-71
2022/01/09 11:50:23;;;;;;;;;;;22.30;37.50;;;;;;1546831;76;787;-69
2022/01/09 11:52:25;;;;;;;;;;;22.20;37.10;;;;;;1534034;76;768;-70
2022/01/09 11:54:27;;;;;;;;;;;22.10;36.80;;;;;;1534588;76;1125;-70
2022/01/09 11:56:49;;;;;;;;;;;22.10;36.50;;;;;;1539816;76;790;-70
2022/01/09 11:58:58;;;;;;;;;;;22.00;36.30;;;;;;1522660;77;766;-69
2022/01/09 12:01:00;;;;;;;;;;;22.00;36.20;;;;;;1523192;77;985;-72
2022/01/09 12:03:04;;;;;;;;;;;21.90;36.10;;;;;;1539003;75;817;-72
2022/01/09 12:05:07;;;;;;;;;;;21.90;36.50;;;;;;1534127;76;1138;-66
2022/01/09 12:07:10;;;;;;;;;;;21.90;37.10;;;;;;1538370;76;718;-68
2022/01/09 12:09:13;;;;;;;;;;;21.90;37.30;;;;;;1543611;75;1913;-69
2022/01/09 12:11:15;;;;;;;;;;;21.90;37.70;;;;;;1530536;77;799;-68
2022/01/09 12:13:35;;;;;;;;;;;22.00;37.90;;;;;;1537114;76;790;-68
2022/01/09 12:15:38;;;;;;;;;;;22.00;38.00;;;;;;1539641;76;1170;-69